sensor_id;sensor_type;location;lat;lon;timestamp;P1;durP1;ratioP1;P2;durP2;ratioP2
31091;SDS011;17747;51.070;10.930;2022-10-15T00:01:04;1097.97;;;999.50;;
31091;SDS011;17747;51.070;10.930;2022-10-15T00:02:36;1101.97;;;999.90;;
31091;SDS011;17747;51.070;10.930;2022-10-15T00:04:07;1107.43;;;999.90;;
31091;SDS011;17747;51.070;10.930;2022-10-15T00:05:39;1110.70;;;999.90;;
31091;SDS011;17747;51.070;10.930;2022-10-15T00:07:11;1110.82;;;999.90;;
31091;SDS011;17747;51.070;10.930;2022-10-15T00:08:43;1098.25;;;999.33;;
31091;SDS011;17747;51.070;10.930;2022-10-15T00:10:15;1093.83;;;997.80;;
31091;SDS011;17747;51.070;10.930;2022-10-15T00:11:47;1098.97;;;999.58;;
31091;SDS011;17747;51.070;10.930;2022-10-15T00:13:18;1102.28;;;999.90;;
31091;SDS011;17747;51.070;10.930;2022-10-15T00:14:50;1083.77;;;988.83;;
31091;SDS011;17747;51.070;10.930;2022-10-15T00:16:22;1097.60;;;999.50;;
31091;SDS011;17747;51.070;10.930;2022-10-15T00:17:55;1103.83;;;999.90;;
31091;SDS011;17747;51.070;10.930;2022-10-15T00:19:26;1090.37;;;995.13;;
31091;SDS011;17747;51.070;10.930;2022-10-15T00:20:59;1074.73;;;981.40;;
31091;SDS011;17747;51.070;10.930;2022-10-15T00:22:32;1087.97;;;992.37;;
31091;SDS011;17747;51.070;10.930;2022-10-15T00:24:04;1099.10;;;999.87;;
31091;SDS011;17747;51.070;10.930;2022-10-15T00:25:36;1098.37;;;999.63;;
31091;SDS011;17747;51.070;10.930;2022-10-15T00:27:07;1103.73;;;999.90;;
31091;SDS011;17747;51.070;10.930;2022-10-15T00:28:38;1088.10;;;992.30;;
31091;SDS011;17747;51.070;10.930;2022-10-15T00:30:09;1088.17;;;992.77;;
31091;SDS011;17747;51.070;10.930;2022-10-15T00:31:41;1090.70;;;994.60;;
31091;SDS011;17747;51.070;10.930;2022-10-15T00:33:13;1065.43;;;973.67;;
31091;SDS011;17747;51.070;10.930;2022-10-15T00:34:43;1081.43;;;987.38;;
31091;SDS011;17747;51.070;10.930;2022-10-15T00:36:15;1084.45;;;989.88;;
31091;SDS011;17747;51.070;10.930;2022-10-15T00:37:50;1056.40;;;966.27;;
31091;SDS011;17747;51.070;10.930;2022-10-15T00:39:22;1077.17;;;984.20;;
31091;SDS011;17747;51.070;10.930;2022-10-15T00:40:53;1056.97;;;966.63;;
31091;SDS011;17747;51.070;10.930;2022-10-15T00:42:24;1073.30;;;980.60;;
31091;SDS011;17747;51.070;10.930;2022-10-15T00:43:56;1066.67;;;975.07;;
31091;SDS011;17747;51.070;10.930;2022-10-15T00:45:28;1078.40;;;984.77;;
31091;SDS011;17747;51.070;10.930;2022-10-15T00:47:02;1077.57;;;984.23;;
31091;SDS011;17747;51.070;10.930;2022-10-15T00:48:36;1075.43;;;982.23;;
31091;SDS011;17747;51.070;10.930;2022-10-15T00:50:09;1069.90;;;977.53;;
31091;SDS011;17747;51.070;10.930;2022-10-15T00:51:43;1069.80;;;977.40;;
31091;SDS011;17747;51.070;10.930;2022-10-15T00:53:20;1074.93;;;981.73;;
31091;SDS011;17747;51.070;10.930;2022-10-15T00:54:53;1075.97;;;982.67;;
31091;SDS011;17747;51.070;10.930;2022-10-15T00:56:27;1082.07;;;987.77;;
31091;SDS011;17747;51.070;10.930;2022-10-15T00:58:04;1080.13;;;986.03;;
31091;SDS011;17747;51.070;10.930;2022-10-15T00:59:40;1081.07;;;986.93;;
31091;SDS011;17747;51.070;10.930;2022-10-15T01:01:13;1081.53;;;987.43;;
31091;SDS011;17747;51.070;10.930;2022-10-15T01:02:45;1075.63;;;982.17;;
31091;SDS011;17747;51.070;10.930;2022-10-15T01:04:17;1058.60;;;967.83;;
31091;SDS011;17747;51.070;10.930;2022-10-15T01:05:50;1062.67;;;971.43;;
31091;SDS011;17747;51.070;10.930;2022-10-15T01:07:22;1058.47;;;967.73;;
31091;SDS011;17747;51.070;10.930;2022-10-15T01:08:55;1062.13;;;970.83;;
31091;SDS011;17747;51.070;10.930;2022-10-15T01:10:28;1063.00;;;971.40;;
31091;SDS011;17747;51.070;10.930;2022-10-15T01:12:08;1072.53;;;979.60;;
31091;SDS011;17747;51.070;10.930;2022-10-15T01:13:43;1071.90;;;979.07;;
31091;SDS011;17747;51.070;10.930;2022-10-15T01:15:24;1069.77;;;977.03;;
31091;SDS011;17747;51.070;10.930;2022-10-15T01:17:01;1070.00;;;977.10;;
31091;SDS011;17747;51.070;10.930;2022-10-15T01:18:38;1067.47;;;974.83;;
31091;SDS011;17747;51.070;10.930;2022-10-15T01:20:19;1062.80;;;970.83;;
31091;SDS011;17747;51.070;10.930;2022-10-15T01:22:18;1071.33;;;978.13;;
31091;SDS011;17747;51.070;10.930;2022-10-15T01:24:37;1070.87;;;977.67;;
31091;SDS011;17747;51.070;10.930;2022-10-15T01:26:23;1069.20;;;976.10;;
31091;SDS011;17747;51.070;10.930;2022-10-15T01:28:13;1067.70;;;975.53;;
31091;SDS011;17747;51.070;10.930;2022-10-15T01:31:58;1063.50;;;971.83;;
31091;SDS011;17747;51.070;10.930;2022-10-15T01:33:35;1075.77;;;981.90;;
31091;SDS011;17747;51.070;10.930;2022-10-15T01:35:14;1076.00;;;982.27;;
31091;SDS011;17747;51.070;10.930;2022-10-15T01:36:54;1076.93;;;982.83;;
31091;SDS011;17747;51.070;10.930;2022-10-15T01:38:32;1078.63;;;984.53;;
31091;SDS011;17747;51.070;10.930;2022-10-15T01:40:10;1075.80;;;981.90;;
31091;SDS011;17747;51.070;10.930;2022-10-15T01:41:46;1076.70;;;982.47;;
31091;SDS011;17747;51.070;10.930;2022-10-15T01:43:23;1075.17;;;981.53;;
31091;SDS011;17747;51.070;10.930;2022-10-15T01:45:02;1075.17;;;981.57;;
31091;SDS011;17747;51.070;10.930;2022-10-15T01:46:39;1076.00;;;982.33;;
31091;SDS011;17747;51.070;10.930;2022-10-15T01:48:14;1075.13;;;981.43;;
31091;SDS011;17747;51.070;10.930;2022-10-15T01:49:48;1077.03;;;983.13;;
31091;SDS011;17747;51.070;10.930;2022-10-15T01:51:23;1077.53;;;983.50;;
31091;SDS011;17747;51.070;10.930;2022-10-15T01:52:55;1078.30;;;984.37;;
31091;SDS011;17747;51.070;10.930;2022-10-15T01:54:29;1079.10;;;985.00;;
31091;SDS011;17747;51.070;10.930;2022-10-15T01:56:01;1076.80;;;982.93;;
31091;SDS011;17747;51.070;10.930;2022-10-15T01:57:36;1075.87;;;982.23;;
31091;SDS011;17747;51.070;10.930;2022-10-15T01:59:10;1074.10;;;980.67;;
31091;SDS011;17747;51.070;10.930;2022-10-15T02:00:42;1073.97;;;981.03;;
31091;SDS011;17747;51.070;10.930;2022-10-15T02:02:15;1073.70;;;980.50;;
31091;SDS011;17747;51.070;10.930;2022-10-15T02:03:47;1072.47;;;979.57;;
31091;SDS011;17747;51.070;10.930;2022-10-15T02:05:20;1074.87;;;982.07;;
31091;SDS011;17747;51.070;10.930;2022-10-15T02:06:57;1066.20;;;974.27;;
31091;SDS011;17747;51.070;10.930;2022-10-15T02:08:33;1063.83;;;972.07;;
31091;SDS011;17747;51.070;10.930;2022-10-15T02:10:14;1060.93;;;969.93;;
31091;SDS011;17747;51.070;10.930;2022-10-15T02:11:54;1063.37;;;971.77;;
31091;SDS011;17747;51.070;10.930;2022-10-15T02:13:39;1064.07;;;972.20;;
31091;SDS011;17747;51.070;10.930;2022-10-15T02:15:17;1067.93;;;975.50;;
31091;SDS011;17747;51.070;10.930;2022-10-15T02:16:57;1068.23;;;976.03;;
31091;SDS011;17747;51.070;10.930;2022-10-15T02:18:37;1064.67;;;973.27;;
31091;SDS011;17747;51.070;10.930;2022-10-15T02:20:13;1062.93;;;971.77;;
31091;SDS011;17747;51.070;10.930;2022-10-15T02:21:50;1063.57;;;972.17;;
31091;SDS011;17747;51.070;10.930;2022-10-15T02:23:24;1065.53;;;974.27;;
31091;SDS011;17747;51.070;10.930;2022-10-15T02:24:57;1063.43;;;972.03;;
31091;SDS011;17747;51.070;10.930;2022-10-15T02:26:34;1061.90;;;970.70;;
31091;SDS011;17747;51.070;10.930;2022-10-15T02:28:07;1063.53;;;972.30;;
31091;SDS011;17747;51.070;10.930;2022-10-15T02:29:40;1062.57;;;971.30;;
31091;SDS011;17747;51.070;10.930;2022-10-15T02:31:13;1059.80;;;968.93;;
31091;SDS011;17747;51.070;10.930;2022-10-15T02:32:49;1062.63;;;971.43;;
31091;SDS011;17747;51.070;10.930;2022-10-15T02:34:26;1059.47;;;968.47;;
31091;SDS011;17747;51.070;10.930;2022-10-15T02:36:01;1068.97;;;976.90;;
31091;SDS011;17747;51.070;10.930;2022-10-15T02:37:33;1065.97;;;974.23;;
31091;SDS011;17747;51.070;10.930;2022-10-15T02:39:05;1067.23;;;975.47;;
31091;SDS011;17747;51.070;10.930;2022-10-15T02:40:38;1061.97;;;970.67;;
31091;SDS011;17747;51.070;10.930;2022-10-15T02:42:13;1057.50;;;967.10;;
31091;SDS011;17747;51.070;10.930;2022-10-15T02:43:46;1055.90;;;966.20;;
31091;SDS011;17747;51.070;10.930;2022-10-15T02:45:17;1052.27;;;962.60;;
31091;SDS011;17747;51.070;10.930;2022-10-15T02:46:48;1054.87;;;964.77;;
31091;SDS011;17747;51.070;10.930;2022-10-15T02:48:20;1053.17;;;963.30;;
31091;SDS011;17747;51.070;10.930;2022-10-15T02:49:53;1063.17;;;971.73;;
31091;SDS011;17747;51.070;10.930;2022-10-15T02:51:24;1054.03;;;964.27;;
31091;SDS011;17747;51.070;10.930;2022-10-15T02:52:56;1056.37;;;965.97;;
31091;SDS011;17747;51.070;10.930;2022-10-15T02:54:27;1056.97;;;966.60;;
31091;SDS011;17747;51.070;10.930;2022-10-15T02:55:58;1054.40;;;964.13;;
31091;SDS011;17747;51.070;10.930;2022-10-15T02:57:30;1055.23;;;965.03;;
31091;SDS011;17747;51.070;10.930;2022-10-15T02:59:01;1054.47;;;964.40;;
31091;SDS011;17747;51.070;10.930;2022-10-15T03:00:34;1058.10;;;967.73;;
31091;SDS011;17747;51.070;10.930;2022-10-15T03:02:06;1053.23;;;963.27;;
31091;SDS011;17747;51.070;10.930;2022-10-15T03:03:37;1056.50;;;966.13;;
31091;SDS011;17747;51.070;10.930;2022-10-15T03:05:10;1057.07;;;966.57;;
31091;SDS011;17747;51.070;10.930;2022-10-15T03:06:41;1052.30;;;962.53;;
31091;SDS011;17747;51.070;10.930;2022-10-15T03:08:13;1053.93;;;963.93;;
31091;SDS011;17747;51.070;10.930;2022-10-15T03:09:44;1050.43;;;960.77;;
31091;SDS011;17747;51.070;10.930;2022-10-15T03:11:15;1055.53;;;965.63;;
31091;SDS011;17747;51.070;10.930;2022-10-15T03:12:46;1052.83;;;963.20;;
31091;SDS011;17747;51.070;10.930;2022-10-15T03:14:17;1052.03;;;962.27;;
31091;SDS011;17747;51.070;10.930;2022-10-15T03:15:49;1047.43;;;958.23;;
31091;SDS011;17747;51.070;10.930;2022-10-15T03:17:20;1051.43;;;962.03;;
31091;SDS011;17747;51.070;10.930;2022-10-15T03:18:52;1049.37;;;960.00;;
31091;SDS011;17747;51.070;10.930;2022-10-15T03:20:25;1048.80;;;959.63;;
31091;SDS011;17747;51.070;10.930;2022-10-15T03:21:56;1054.80;;;964.53;;
31091;SDS011;17747;51.070;10.930;2022-10-15T03:23:28;1054.33;;;964.50;;
31091;SDS011;17747;51.070;10.930;2022-10-15T03:24:59;1054.57;;;964.43;;
31091;SDS011;17747;51.070;10.930;2022-10-15T03:26:31;1051.00;;;961.60;;
31091;SDS011;17747;51.070;10.930;2022-10-15T03:28:02;1049.60;;;960.30;;
31091;SDS011;17747;51.070;10.930;2022-10-15T03:29:34;1049.70;;;960.43;;
31091;SDS011;17747;51.070;10.930;2022-10-15T03:31:05;1047.60;;;958.50;;
31091;SDS011;17747;51.070;10.930;2022-10-15T03:32:36;1054.80;;;964.87;;
31091;SDS011;17747;51.070;10.930;2022-10-15T03:34:08;1058.43;;;967.63;;
31091;SDS011;17747;51.070;10.930;2022-10-15T03:35:40;1054.50;;;964.20;;
31091;SDS011;17747;51.070;10.930;2022-10-15T03:37:12;1055.73;;;965.70;;
31091;SDS011;17747;51.070;10.930;2022-10-15T03:38:43;1053.57;;;963.60;;
31091;SDS011;17747;51.070;10.930;2022-10-15T03:40:15;1054.17;;;963.90;;
31091;SDS011;17747;51.070;10.930;2022-10-15T03:41:46;1051.80;;;961.93;;
31091;SDS011;17747;51.070;10.930;2022-10-15T03:43:18;1053.60;;;963.37;;
31091;SDS011;17747;51.070;10.930;2022-10-15T03:44:49;1051.57;;;962.07;;
31091;SDS011;17747;51.070;10.930;2022-10-15T03:46:21;1048.33;;;959.33;;
31091;SDS011;17747;51.070;10.930;2022-10-15T03:47:52;1048.50;;;959.40;;
31091;SDS011;17747;51.070;10.930;2022-10-15T03:49:24;1050.87;;;961.27;;
31091;SDS011;17747;51.070;10.930;2022-10-15T03:50:56;1050.27;;;960.87;;
31091;SDS011;17747;51.070;10.930;2022-10-15T03:52:28;1048.63;;;959.43;;
31091;SDS011;17747;51.070;10.930;2022-10-15T03:53:59;1053.07;;;963.47;;
31091;SDS011;17747;51.070;10.930;2022-10-15T03:55:30;1053.13;;;963.37;;
31091;SDS011;17747;51.070;10.930;2022-10-15T03:57:01;1051.03;;;961.70;;
31091;SDS011;17747;51.070;10.930;2022-10-15T03:58:33;1050.43;;;961.03;;
31091;SDS011;17747;51.070;10.930;2022-10-15T04:00:05;1057.40;;;966.90;;
31091;SDS011;17747;51.070;10.930;2022-10-15T04:01:38;1061.90;;;971.13;;
31091;SDS011;17747;51.070;10.930;2022-10-15T04:03:09;1054.90;;;964.90;;
31091;SDS011;17747;51.070;10.930;2022-10-15T04:04:41;1051.13;;;961.87;;
31091;SDS011;17747;51.070;10.930;2022-10-15T04:06:14;1043.83;;;955.37;;
31091;SDS011;17747;51.070;10.930;2022-10-15T04:07:45;1045.53;;;957.10;;
31091;SDS011;17747;51.070;10.930;2022-10-15T04:09:17;1043.30;;;955.30;;
31091;SDS011;17747;51.070;10.930;2022-10-15T04:10:47;1041.57;;;953.87;;
31091;SDS011;17747;51.070;10.930;2022-10-15T04:12:21;1039.67;;;952.17;;
31091;SDS011;17747;51.070;10.930;2022-10-15T04:13:52;1042.90;;;955.07;;
31091;SDS011;17747;51.070;10.930;2022-10-15T04:15:24;1045.53;;;957.03;;
31091;SDS011;17747;51.070;10.930;2022-10-15T04:16:56;1046.87;;;958.13;;
31091;SDS011;17747;51.070;10.930;2022-10-15T04:18:28;1046.43;;;957.97;;
31091;SDS011;17747;51.070;10.930;2022-10-15T04:20:00;1042.47;;;954.57;;
31091;SDS011;17747;51.070;10.930;2022-10-15T04:21:33;1042.67;;;954.83;;
31091;SDS011;17747;51.070;10.930;2022-10-15T04:23:04;1040.20;;;952.57;;
31091;SDS011;17747;51.070;10.930;2022-10-15T04:24:36;1040.00;;;952.60;;
31091;SDS011;17747;51.070;10.930;2022-10-15T04:26:07;1040.70;;;952.97;;
31091;SDS011;17747;51.070;10.930;2022-10-15T04:27:39;1038.43;;;951.10;;
31091;SDS011;17747;51.070;10.930;2022-10-15T04:29:10;1035.50;;;948.73;;
31091;SDS011;17747;51.070;10.930;2022-10-15T04:30:42;1036.03;;;949.23;;
31091;SDS011;17747;51.070;10.930;2022-10-15T04:32:13;1029.77;;;943.83;;
31091;SDS011;17747;51.070;10.930;2022-10-15T04:33:46;1029.00;;;943.40;;
31091;SDS011;17747;51.070;10.930;2022-10-15T04:35:18;1035.70;;;949.20;;
31091;SDS011;17747;51.070;10.930;2022-10-15T04:36:51;1035.13;;;948.80;;
31091;SDS011;17747;51.070;10.930;2022-10-15T04:38:22;1041.20;;;953.73;;
31091;SDS011;17747;51.070;10.930;2022-10-15T04:39:54;1036.93;;;950.10;;
31091;SDS011;17747;51.070;10.930;2022-10-15T04:41:25;1037.50;;;950.50;;
31091;SDS011;17747;51.070;10.930;2022-10-15T04:42:56;1038.93;;;951.97;;
31091;SDS011;17747;51.070;10.930;2022-10-15T04:44:27;1040.17;;;952.70;;
31091;SDS011;17747;51.070;10.930;2022-10-15T04:46:00;1047.27;;;959.00;;
31091;SDS011;17747;51.070;10.930;2022-10-15T04:47:31;1041.10;;;953.63;;
31091;SDS011;17747;51.070;10.930;2022-10-15T04:49:03;1045.93;;;957.73;;
31091;SDS011;17747;51.070;10.930;2022-10-15T04:50:34;1042.63;;;955.10;;
31091;SDS011;17747;51.070;10.930;2022-10-15T04:52:07;1047.13;;;958.90;;
31091;SDS011;17747;51.070;10.930;2022-10-15T04:53:39;1043.57;;;955.30;;
31091;SDS011;17747;51.070;10.930;2022-10-15T04:55:10;1043.33;;;955.07;;
31091;SDS011;17747;51.070;10.930;2022-10-15T04:56:42;1044.37;;;955.90;;
31091;SDS011;17747;51.070;10.930;2022-10-15T04:58:13;1046.17;;;957.43;;
31091;SDS011;17747;51.070;10.930;2022-10-15T04:59:45;1053.07;;;963.23;;
31091;SDS011;17747;51.070;10.930;2022-10-15T05:01:17;1045.80;;;957.37;;
31091;SDS011;17747;51.070;10.930;2022-10-15T05:02:50;1049.47;;;960.53;;
31091;SDS011;17747;51.070;10.930;2022-10-15T05:04:21;1058.10;;;967.80;;
31091;SDS011;17747;51.070;10.930;2022-10-15T05:05:52;1059.87;;;969.10;;
31091;SDS011;17747;51.070;10.930;2022-10-15T05:07:31;1064.23;;;972.90;;
31091;SDS011;17747;51.070;10.930;2022-10-15T05:09:03;1066.53;;;974.93;;
31091;SDS011;17747;51.070;10.930;2022-10-15T05:10:34;1063.53;;;972.33;;
31091;SDS011;17747;51.070;10.930;2022-10-15T05:12:06;1062.10;;;970.57;;
31091;SDS011;17747;51.070;10.930;2022-10-15T05:13:37;1064.63;;;973.07;;
31091;SDS011;17747;51.070;10.930;2022-10-15T05:15:08;1062.67;;;971.37;;
31091;SDS011;17747;51.070;10.930;2022-10-15T05:16:40;1060.73;;;970.00;;
31091;SDS011;17747;51.070;10.930;2022-10-15T05:18:12;1059.57;;;968.67;;
31091;SDS011;17747;51.070;10.930;2022-10-15T05:19:43;1052.30;;;962.40;;
31091;SDS011;17747;51.070;10.930;2022-10-15T05:21:14;1050.03;;;960.77;;
31091;SDS011;17747;51.070;10.930;2022-10-15T05:22:48;1053.57;;;963.70;;
31091;SDS011;17747;51.070;10.930;2022-10-15T05:24:19;1047.50;;;958.30;;
31091;SDS011;17747;51.070;10.930;2022-10-15T05:25:51;1050.60;;;961.07;;
31091;SDS011;17747;51.070;10.930;2022-10-15T05:27:22;1045.83;;;957.10;;
31091;SDS011;17747;51.070;10.930;2022-10-15T05:28:54;1051.27;;;962.00;;
31091;SDS011;17747;51.070;10.930;2022-10-15T05:30:27;1053.17;;;963.40;;
31091;SDS011;17747;51.070;10.930;2022-10-15T05:31:58;1049.57;;;960.17;;
31091;SDS011;17747;51.070;10.930;2022-10-15T05:33:30;1047.43;;;958.63;;
31091;SDS011;17747;51.070;10.930;2022-10-15T05:35:02;1048.27;;;959.17;;
31091;SDS011;17747;51.070;10.930;2022-10-15T05:36:34;1050.17;;;960.93;;
31091;SDS011;17747;51.070;10.930;2022-10-15T05:38:07;1049.63;;;960.40;;
31091;SDS011;17747;51.070;10.930;2022-10-15T05:39:39;1046.27;;;957.67;;
31091;SDS011;17747;51.070;10.930;2022-10-15T05:41:10;1046.37;;;957.67;;
31091;SDS011;17747;51.070;10.930;2022-10-15T05:42:42;1050.07;;;961.13;;
31091;SDS011;17747;51.070;10.930;2022-10-15T05:44:13;1051.33;;;962.07;;
31091;SDS011;17747;51.070;10.930;2022-10-15T05:45:45;1048.43;;;959.67;;
31091;SDS011;17747;51.070;10.930;2022-10-15T05:47:16;1050.73;;;961.80;;
31091;SDS011;17747;51.070;10.930;2022-10-15T05:48:48;1049.40;;;960.37;;
31091;SDS011;17747;51.070;10.930;2022-10-15T05:50:20;1050.07;;;960.83;;
31091;SDS011;17747;51.070;10.930;2022-10-15T05:51:51;1045.40;;;956.83;;
31091;SDS011;17747;51.070;10.930;2022-10-15T05:53:24;1048.70;;;959.73;;
31091;SDS011;17747;51.070;10.930;2022-10-15T05:54:56;1045.30;;;957.07;;
31091;SDS011;17747;51.070;10.930;2022-10-15T05:56:28;1048.07;;;959.30;;
31091;SDS011;17747;51.070;10.930;2022-10-15T05:58:00;1046.43;;;958.03;;
31091;SDS011;17747;51.070;10.930;2022-10-15T05:59:31;1044.80;;;956.43;;
31091;SDS011;17747;51.070;10.930;2022-10-15T06:01:04;1042.73;;;954.83;;
31091;SDS011;17747;51.070;10.930;2022-10-15T06:02:37;1042.57;;;954.63;;
31091;SDS011;17747;51.070;10.930;2022-10-15T06:04:08;1045.53;;;957.17;;
31091;SDS011;17747;51.070;10.930;2022-10-15T06:05:40;1047.33;;;958.63;;
31091;SDS011;17747;51.070;10.930;2022-10-15T06:07:12;1044.80;;;956.63;;
31091;SDS011;17747;51.070;10.930;2022-10-15T06:08:44;1048.57;;;959.77;;
31091;SDS011;17747;51.070;10.930;2022-10-15T06:10:16;1043.70;;;955.90;;
31091;SDS011;17747;51.070;10.930;2022-10-15T06:11:48;1043.27;;;955.03;;
31091;SDS011;17747;51.070;10.930;2022-10-15T06:13:19;1041.80;;;954.00;;
31091;SDS011;17747;51.070;10.930;2022-10-15T06:14:50;1045.70;;;957.40;;
31091;SDS011;17747;51.070;10.930;2022-10-15T06:16:22;1045.23;;;956.63;;
31091;SDS011;17747;51.070;10.930;2022-10-15T06:17:54;1044.90;;;956.63;;
31091;SDS011;17747;51.070;10.930;2022-10-15T06:19:25;1043.17;;;955.13;;
31091;SDS011;17747;51.070;10.930;2022-10-15T06:20:57;1044.50;;;956.27;;
31091;SDS011;17747;51.070;10.930;2022-10-15T06:22:29;1049.57;;;960.77;;
31091;SDS011;17747;51.070;10.930;2022-10-15T06:24:02;1050.53;;;961.53;;
31091;SDS011;17747;51.070;10.930;2022-10-15T06:25:33;1059.67;;;969.13;;
31091;SDS011;17747;51.070;10.930;2022-10-15T06:27:05;1055.27;;;965.10;;
31091;SDS011;17747;51.070;10.930;2022-10-15T06:28:36;1045.37;;;956.70;;
31091;SDS011;17747;51.070;10.930;2022-10-15T06:30:09;1047.23;;;958.37;;
31091;SDS011;17747;51.070;10.930;2022-10-15T06:31:40;1045.10;;;956.40;;
31091;SDS011;17747;51.070;10.930;2022-10-15T06:33:12;1046.80;;;958.10;;
31091;SDS011;17747;51.070;10.930;2022-10-15T06:34:45;1046.87;;;957.97;;
31091;SDS011;17747;51.070;10.930;2022-10-15T06:36:16;1044.50;;;955.60;;
31091;SDS011;17747;51.070;10.930;2022-10-15T06:37:48;1046.57;;;957.77;;
31091;SDS011;17747;51.070;10.930;2022-10-15T06:39:21;1047.07;;;958.27;;
31091;SDS011;17747;51.070;10.930;2022-10-15T06:40:52;1051.13;;;961.73;;
31091;SDS011;17747;51.070;10.930;2022-10-15T06:42:24;1053.20;;;963.17;;
31091;SDS011;17747;51.070;10.930;2022-10-15T06:43:54;1047.10;;;958.00;;
31091;SDS011;17747;51.070;10.930;2022-10-15T06:45:25;1043.50;;;954.97;;
31091;SDS011;17747;51.070;10.930;2022-10-15T06:46:57;1047.60;;;958.40;;
31091;SDS011;17747;51.070;10.930;2022-10-15T06:48:28;1045.43;;;956.67;;
31091;SDS011;17747;51.070;10.930;2022-10-15T06:50:01;1046.23;;;957.47;;
31091;SDS011;17747;51.070;10.930;2022-10-15T06:51:34;1044.80;;;956.40;;
31091;SDS011;17747;51.070;10.930;2022-10-15T06:53:06;1040.37;;;952.53;;
31091;SDS011;17747;51.070;10.930;2022-10-15T06:54:39;1039.17;;;951.60;;
31091;SDS011;17747;51.070;10.930;2022-10-15T06:56:11;1045.03;;;956.17;;
31091;SDS011;17747;51.070;10.930;2022-10-15T06:57:42;1042.93;;;954.47;;
31091;SDS011;17747;51.070;10.930;2022-10-15T06:59:14;1048.40;;;958.97;;
31091;SDS011;17747;51.070;10.930;2022-10-15T07:00:45;1047.33;;;957.97;;
31091;SDS011;17747;51.070;10.930;2022-10-15T07:02:17;1052.63;;;962.73;;
31091;SDS011;17747;51.070;10.930;2022-10-15T07:03:48;1054.47;;;964.03;;
31091;SDS011;17747;51.070;10.930;2022-10-15T07:05:20;1055.77;;;964.80;;
31091;SDS011;17747;51.070;10.930;2022-10-15T07:06:52;1052.27;;;961.97;;
31091;SDS011;17747;51.070;10.930;2022-10-15T07:08:23;1048.30;;;958.70;;
31091;SDS011;17747;51.070;10.930;2022-10-15T07:09:55;1054.80;;;964.43;;
31091;SDS011;17747;51.070;10.930;2022-10-15T07:11:27;1052.60;;;962.67;;
31091;SDS011;17747;51.070;10.930;2022-10-15T07:12:58;1054.53;;;964.13;;
31091;SDS011;17747;51.070;10.930;2022-10-15T07:14:29;1048.13;;;959.00;;
31091;SDS011;17747;51.070;10.930;2022-10-15T07:16:04;1058.10;;;967.50;;
31091;SDS011;17747;51.070;10.930;2022-10-15T07:17:36;1052.20;;;962.33;;
31091;SDS011;17747;51.070;10.930;2022-10-15T07:19:08;1047.40;;;958.30;;
31091;SDS011;17747;51.070;10.930;2022-10-15T07:20:40;1048.30;;;958.87;;
31091;SDS011;17747;51.070;10.930;2022-10-15T07:22:10;1045.37;;;956.27;;
31091;SDS011;17747;51.070;10.930;2022-10-15T07:23:41;1047.23;;;957.87;;
31091;SDS011;17747;51.070;10.930;2022-10-15T07:25:14;1080.87;;;986.87;;
31091;SDS011;17747;51.070;10.930;2022-10-15T07:26:46;1077.80;;;984.13;;
31091;SDS011;17747;51.070;10.930;2022-10-15T07:28:18;1070.60;;;978.10;;
31091;SDS011;17747;51.070;10.930;2022-10-15T07:29:48;1073.30;;;980.30;;
31091;SDS011;17747;51.070;10.930;2022-10-15T07:31:20;1082.43;;;987.90;;
31091;SDS011;17747;51.070;10.930;2022-10-15T07:32:51;1077.37;;;983.83;;
31091;SDS011;17747;51.070;10.930;2022-10-15T07:34:23;1075.57;;;981.83;;
31091;SDS011;17747;51.070;10.930;2022-10-15T07:35:54;1076.03;;;982.23;;
31091;SDS011;17747;51.070;10.930;2022-10-15T07:37:26;1080.90;;;986.80;;
31091;SDS011;17747;51.070;10.930;2022-10-15T07:38:57;1074.33;;;981.47;;
31091;SDS011;17747;51.070;10.930;2022-10-15T07:40:30;1069.37;;;976.97;;
31091;SDS011;17747;51.070;10.930;2022-10-15T07:42:01;1065.83;;;974.03;;
31091;SDS011;17747;51.070;10.930;2022-10-15T07:43:33;1071.47;;;978.73;;
31091;SDS011;17747;51.070;10.930;2022-10-15T07:45:05;1070.37;;;977.90;;
31091;SDS011;17747;51.070;10.930;2022-10-15T07:46:37;1068.13;;;975.77;;
31091;SDS011;17747;51.070;10.930;2022-10-15T07:48:09;1063.63;;;971.60;;
31091;SDS011;17747;51.070;10.930;2022-10-15T07:49:40;1060.77;;;969.27;;
31091;SDS011;17747;51.070;10.930;2022-10-15T07:51:12;1068.93;;;976.07;;
31091;SDS011;17747;51.070;10.930;2022-10-15T07:52:43;1065.87;;;973.30;;
31091;SDS011;17747;51.070;10.930;2022-10-15T07:54:15;1069.27;;;976.97;;
31091;SDS011;17747;51.070;10.930;2022-10-15T07:55:48;1074.90;;;981.37;;
31091;SDS011;17747;51.070;10.930;2022-10-15T07:57:19;1077.07;;;983.03;;
31091;SDS011;17747;51.070;10.930;2022-10-15T07:58:51;1080.53;;;985.87;;
31091;SDS011;17747;51.070;10.930;2022-10-15T08:00:22;1084.60;;;989.03;;
31091;SDS011;17747;51.070;10.930;2022-10-15T08:01:54;1082.37;;;987.60;;
31091;SDS011;17747;51.070;10.930;2022-10-15T08:03:25;1088.03;;;992.10;;
31091;SDS011;17747;51.070;10.930;2022-10-15T08:04:57;1102.37;;;999.90;;
31091;SDS011;17747;51.070;10.930;2022-10-15T08:06:29;1095.57;;;998.28;;
31091;SDS011;17747;51.070;10.930;2022-10-15T08:08:01;1099.78;;;999.70;;
31091;SDS011;17747;51.070;10.930;2022-10-15T08:09:33;1094.22;;;997.45;;
31091;SDS011;17747;51.070;10.930;2022-10-15T08:11:06;1098.80;;;999.58;;
31091;SDS011;17747;51.070;10.930;2022-10-15T08:12:39;1090.53;;;994.58;;
31091;SDS011;17747;51.070;10.930;2022-10-15T08:14:10;1088.10;;;992.53;;
31091;SDS011;17747;51.070;10.930;2022-10-15T08:15:42;1089.32;;;993.53;;
31091;SDS011;17747;51.070;10.930;2022-10-15T08:17:13;1085.97;;;990.78;;
31091;SDS011;17747;51.070;10.930;2022-10-15T08:18:45;1084.73;;;989.77;;
31091;SDS011;17747;51.070;10.930;2022-10-15T08:20:16;1073.40;;;980.43;;
31091;SDS011;17747;51.070;10.930;2022-10-15T08:21:48;1071.13;;;978.37;;
31091;SDS011;17747;51.070;10.930;2022-10-15T08:23:19;1068.07;;;976.07;;
31091;SDS011;17747;51.070;10.930;2022-10-15T08:24:51;1070.90;;;978.08;;
31091;SDS011;17747;51.070;10.930;2022-10-15T08:26:24;1069.43;;;977.03;;
31091;SDS011;17747;51.070;10.930;2022-10-15T08:27:55;1078.37;;;984.27;;
31091;SDS011;17747;51.070;10.930;2022-10-15T08:29:27;1071.20;;;978.73;;
31091;SDS011;17747;51.070;10.930;2022-10-15T08:30:58;1057.47;;;966.63;;
31091;SDS011;17747;51.070;10.930;2022-10-15T08:32:30;1055.80;;;965.23;;
31091;SDS011;17747;51.070;10.930;2022-10-15T08:34:02;1060.57;;;969.40;;
31091;SDS011;17747;51.070;10.930;2022-10-15T08:35:33;1054.23;;;963.77;;